Time;durP1;ratioP1;P1;durP2;ratioP2;P2;SDS_P1;SDS_P2;PMS_P1;PMS_P2;Temp;Humidity;BMP_temperature;BMP_pressure;BME280_temperature;BME280_humidity;BME280_pressure;Samples;Min_cycle;Max_cycle;Signal;HPM_P1;HPM_P2
2023/09/27 00:01:27;;;;;;;266.33;174.02;;;26.60;99.90;;;;;;5055112;28;20098;-66
2023/09/27 00:03:54;;;;;;;257.50;171.77;;;26.70;99.90;;;;;;5054992;28;20029;-67
2023/09/27 00:06:21;;;;;;;254.68;167.27;;;26.80;99.90;;;;;;5055174;28;20107;-65
2023/09/27 00:08:47;;;;;;;245.85;159.13;;;26.80;99.90;;;;;;5054798;28;20482;-66
2023/09/27 00:11:14;;;;;;;240.68;159.43;;;26.90;99.90;;;;;;5055303;28;20029;-65
2023/09/27 00:13:40;;;;;;;251.00;159.45;;;27.00;99.90;;;;;;5054975;28;20041;-67
2023/09/27 00:16:07;;;;;;;242.95;155.73;;;27.10;99.90;;;;;;5054838;28;20029;-65
2023/09/27 00:18:33;;;;;;;229.88;146.18;;;27.30;99.90;;;;;;5055027;28;20033;-67
2023/09/27 00:21:00;;;;;;;204.70;135.38;;;27.20;99.90;;;;;;5054770;28;20119;-65
2023/09/27 00:23:26;;;;;;;197.98;131.25;;;27.40;99.90;;;;;;5054660;28;20036;-65
2023/09/27 00:25:53;;;;;;;198.80;130.07;;;27.50;99.90;;;;;;5054478;28;20025;-66
2023/09/27 00:28:19;;;;;;;198.40;128.55;;;27.50;99.90;;;;;;5054684;28;20044;-69
2023/09/27 00:30:48;;;;;;;179.93;120.63;;;27.40;99.90;;;;;;5054521;28;20078;-65
2023/09/27 00:33:15;;;;;;;165.05;111.18;;;27.50;99.90;;;;;;5054447;28;20075;-65
2023/09/27 00:35:41;;;;;;;180.98;114.53;;;27.50;99.90;;;;;;5054580;28;20378;-66
2023/09/27 00:38:10;;;;;;;175.65;113.13;;;27.70;99.90;;;;;;5054725;28;20419;-67
2023/09/27 00:40:45;;;;;;;173.73;113.22;;;27.70;99.90;;;;;;5054139;28;20466;-66
2023/09/27 00:43:26;;;;;;;167.93;110.85;;;27.90;99.90;;;;;;5053312;28;20528;-68
2023/09/27 00:46:00;;;;;;;168.45;110.25;;;27.90;99.90;;;;;;5054076;28;20028;-66
2023/09/27 00:48:27;;;;;;;171.88;111.88;;;28.00;99.90;;;;;;5062827;28;20039;-66
2023/09/27 00:50:54;;;;;;;177.35;112.93;;;28.00;99.90;;;;;;5065414;28;20054;-67
2023/09/27 00:53:24;;;;;;;176.57;112.03;;;28.10;99.90;;;;;;5054179;28;20041;-67
2023/09/27 00:55:51;;;;;;;158.23;102.80;;;28.20;99.90;;;;;;5054229;28;20052;-67
2023/09/27 00:58:20;;;;;;;152.82;98.10;;;28.30;99.90;;;;;;5063094;28;20029;-64
2023/09/27 01:00:50;;;;;;;140.63;94.07;;;28.30;99.90;;;;;;5074025;28;20017;-65
2023/09/27 01:03:17;;;;;;;131.93;85.40;;;28.40;99.90;;;;;;5062404;28;20031;-66
2023/09/27 01:05:44;;;;;;;115.75;77.65;;;28.50;99.90;;;;;;5053819;28;20021;-67
2023/09/27 01:08:11;;;;;;;120.43;75.78;;;28.60;99.90;;;;;;5053857;28;20029;-66
2023/09/27 01:10:38;;;;;;;116.20;69.03;;;28.60;99.90;;;;;;5069385;28;20473;-64
2023/09/27 01:13:05;;;;;;;115.00;73.07;;;28.60;99.90;;;;;;5073337;28;20047;-63
2023/09/27 01:15:33;;;;;;;112.97;75.43;;;28.70;99.90;;;;;;5072606;28;20028;-66
2023/09/27 01:18:01;;;;;;;124.75;80.95;;;28.80;99.90;;;;;;5073783;28;20067;-69
2023/09/27 01:20:29;;;;;;;140.75;86.97;;;28.90;99.90;;;;;;5072871;28;20081;-64
2023/09/27 01:23:02;;;;;;;132.00;84.03;;;28.90;99.90;;;;;;5067476;28;20035;-64
2023/09/27 01:25:31;;;;;;;136.77;87.15;;;29.00;99.90;;;;;;5060104;28;20040;-67
2023/09/27 01:28:00;;;;;;;140.75;89.57;;;29.00;99.90;;;;;;5073078;28;20488;-65
2023/09/27 01:30:36;;;;;;;152.85;90.30;;;29.10;99.90;;;;;;5073429;28;20439;-65
2023/09/27 01:33:06;;;;;;;142.68;89.28;;;29.10;99.90;;;;;;5073665;28;20485;-64
2023/09/27 01:35:37;;;;;;;147.77;88.45;;;29.20;99.90;;;;;;5073445;28;20024;-65
2023/09/27 01:38:04;;;;;;;154.95;86.97;;;29.20;99.90;;;;;;5073647;28;20431;-65
2023/09/27 01:40:31;;;;;;;129.18;76.05;;;29.20;99.90;;;;;;5073400;28;20082;-65
2023/09/27 01:42:59;;;;;;;117.28;73.18;;;29.30;99.90;;;;;;5073426;28;20016;-66
2023/09/27 01:45:27;;;;;;;101.03;63.80;;;29.40;99.90;;;;;;5057781;28;20021;-65
2023/09/27 01:47:54;;;;;;;97.82;61.55;;;29.50;99.90;;;;;;5052974;28;20034;-65
2023/09/27 01:50:24;;;;;;;86.50;51.42;;;29.60;99.90;;;;;;5053183;28;20029;-65
2023/09/27 01:52:51;;;;;;;87.85;54.00;;;29.60;99.90;;;;;;5053001;28;20061;-64
2023/09/27 01:55:18;;;;;;;86.10;56.25;;;29.70;99.90;;;;;;5052661;28;20021;-64
2023/09/27 01:57:46;;;;;;;94.28;56.08;;;29.80;99.90;;;;;;5053002;28;20064;-65
2023/09/27 02:00:16;;;;;;;89.88;56.35;;;29.90;99.90;;;;;;5053038;28;20025;-64
2023/09/27 02:02:47;;;;;;;105.03;60.03;;;29.90;99.90;;;;;;5052938;28;20040;-65
2023/09/27 02:05:14;;;;;;;102.63;60.00;;;29.90;99.90;;;;;;5063967;28;20017;-65
2023/09/27 02:07:41;;;;;;;90.78;55.38;;;30.00;99.90;;;;;;5057054;28;20071;-64
2023/09/27 02:10:10;;;;;;;90.22;53.38;;;30.00;99.90;;;;;;5052896;28;20171;-65
2023/09/27 02:12:38;;;;;;;83.40;51.42;;;30.10;99.90;;;;;;5053095;28;20111;-65
2023/09/27 02:15:09;;;;;;;85.47;49.67;;;30.30;99.90;;;;;;5052832;28;20430;-64
2023/09/27 02:17:37;;;;;;;83.15;48.13;;;30.30;99.90;;;;;;5052825;28;20156;-65
2023/09/27 02:20:07;;;;;;;72.57;37.53;;;30.40;99.90;;;;;;5061081;28;20028;-64
2023/09/27 02:22:37;;;;;;;66.95;39.30;;;30.50;99.90;;;;;;5072785;28;20020;-63
2023/09/27 02:25:06;;;;;;;67.63;39.15;;;30.60;99.90;;;;;;5066600;28;20025;-66
2023/09/27 02:27:35;;;;;;;64.60;39.92;;;30.60;99.90;;;;;;5072868;28;20028;-64
2023/09/27 02:30:03;;;;;;;90.35;49.33;;;30.70;99.90;;;;;;5072769;28;20473;-68
2023/09/27 02:32:30;;;;;;;98.03;54.05;;;30.70;99.90;;;;;;5072813;28;20033;-64
2023/09/27 02:34:57;;;;;;;107.68;59.53;;;30.90;99.90;;;;;;5073065;28;20469;-63
2023/09/27 02:37:24;;;;;;;136.18;68.38;;;30.90;99.90;;;;;;5069886;28;20032;-64
2023/09/27 02:39:50;;;;;;;156.10;81.35;;;31.00;99.90;;;;;;5072953;28;20477;-65
2023/09/27 02:42:17;;;;;;;194.85;104.55;;;31.10;99.90;;;;;;5072845;28;20020;-65
2023/09/27 02:44:44;;;;;;;215.93;114.13;;;31.20;99.90;;;;;;5064723;28;20024;-65
2023/09/27 02:47:10;;;;;;;248.45;128.73;;;31.20;99.90;;;;;;5063273;28;20024;-66
2023/09/27 02:49:37;;;;;;;272.58;139.88;;;31.20;99.90;;;;;;5061495;28;20398;-66
2023/09/27 02:52:06;;;;;;;296.88;152.10;;;31.30;99.90;;;;;;5061874;28;20094;-66
2023/09/27 02:54:33;;;;;;;300.85;154.00;;;31.30;99.90;;;;;;5063148;28;20047;-65
2023/09/27 02:57:00;;;;;;;253.80;135.35;;;31.40;99.90;;;;;;5057591;28;20048;-65
2023/09/27 02:59:29;;;;;;;216.85;114.13;;;31.40;99.90;;;;;;5052535;28;20385;-69
2023/09/27 03:01:56;;;;;;;114.95;59.30;;;31.60;99.90;;;;;;5061212;28;20029;-68
2023/09/27 03:04:22;;;;;;;69.85;35.85;;;31.60;99.90;;;;;;5072969;28;20492;-62
2023/09/27 03:06:49;;;;;;;44.55;30.35;;;31.70;99.90;;;;;;5074324;28;20063;-67
2023/09/27 03:09:16;;;;;;;44.90;27.63;;;31.80;99.90;;;;;;5075480;28;20024;-63
2023/09/27 03:11:43;;;;;;;53.00;29.77;;;32.00;99.90;;;;;;5076225;28;20029;-65
2023/09/27 03:14:10;;;;;;;40.20;24.98;;;32.00;99.90;;;;;;5076060;28;20032;-65
2023/09/27 03:16:37;;;;;;;41.22;25.60;;;32.10;99.90;;;;;;5074502;28;20021;-65
2023/09/27 03:19:04;;;;;;;44.65;26.00;;;32.20;99.90;;;;;;5074947;28;20029;-64
2023/09/27 03:21:31;;;;;;;48.47;29.40;;;32.20;99.90;;;;;;5070382;28;20071;-65
2023/09/27 03:23:57;;;;;;;51.58;31.13;;;32.30;99.90;;;;;;5069394;28;20024;-65
2023/09/27 03:26:24;;;;;;;48.55;32.53;;;32.40;99.90;;;;;;5074976;28;20393;-65
2023/09/27 03:28:51;;;;;;;51.15;28.83;;;32.40;99.90;;;;;;5062722;28;20031;-64
2023/09/27 03:31:19;;;;;;;51.95;31.27;;;32.40;99.90;;;;;;5069217;28;20473;-64
2023/09/27 03:33:48;;;;;;;49.30;29.27;;;32.50;99.90;;;;;;5075685;28;20043;-64
2023/09/27 03:36:14;;;;;;;48.17;29.13;;;32.50;99.90;;;;;;5075578;28;20512;-65
2023/09/27 03:38:41;;;;;;;56.30;33.00;;;32.60;99.90;;;;;;5075640;28;20028;-63
2023/09/27 03:41:10;;;;;;;55.75;32.25;;;32.60;99.90;;;;;;5075274;28;20082;-64
2023/09/27 03:43:37;;;;;;;57.10;32.92;;;32.70;99.90;;;;;;5075317;28;20028;-64
2023/09/27 03:46:04;;;;;;;61.50;35.63;;;32.80;99.90;;;;;;5075446;28;20028;-64
2023/09/27 03:48:32;;;;;;;72.85;39.13;;;32.80;99.60;;;;;;5075615;28;20040;-64
2023/09/27 03:50:59;;;;;;;92.05;51.22;;;32.90;99.20;;;;;;5075164;28;20165;-64
2023/09/27 03:53:26;;;;;;;80.50;46.92;;;33.00;98.00;;;;;;5075196;28;20044;-64
2023/09/27 03:55:53;;;;;;;80.70;45.47;;;33.10;98.10;;;;;;5075485;28;20477;-64
2023/09/27 03:58:20;;;;;;;77.47;44.53;;;33.10;97.80;;;;;;5075163;28;20473;-63
2023/09/27 04:00:46;;;;;;;91.47;47.28;;;33.20;97.90;;;;;;5075177;28;20028;-66
2023/09/27 04:03:13;;;;;;;91.50;53.67;;;33.20;97.80;;;;;;5075094;28;20153;-64
2023/09/27 04:05:40;;;;;;;107.25;58.22;;;33.30;96.60;;;;;;5074224;28;20538;-64
2023/09/27 04:08:06;;;;;;;106.05;56.53;;;33.30;95.90;;;;;;5075154;28;20112;-64
2023/09/27 04:10:33;;;;;;;100.82;57.10;;;33.40;95.90;;;;;;5074423;28;20040;-63
2023/09/27 04:13:00;;;;;;;98.57;56.25;;;33.40;95.60;;;;;;5073560;28;20042;-63
2023/09/27 04:15:27;;;;;;;107.45;60.22;;;33.40;95.20;;;;;;5072712;28;20384;-64
2023/09/27 04:17:53;;;;;;;102.38;60.92;;;33.40;95.40;;;;;;5074380;28;20030;-64
2023/09/27 04:20:21;;;;;;;124.82;68.10;;;33.50;95.60;;;;;;5074575;28;20051;-65
2023/09/27 04:22:49;;;;;;;128.10;72.13;;;33.60;94.90;;;;;;5074776;28;20021;-64
2023/09/27 04:25:17;;;;;;;120.15;71.18;;;33.60;94.70;;;;;;5074769;28;20438;-67
2023/09/27 04:27:46;;;;;;;136.60;77.35;;;33.60;95.00;;;;;;5074589;28;20103;-68
2023/09/27 04:30:15;;;;;;;127.95;75.75;;;33.60;95.20;;;;;;5074768;28;20082;-67
2023/09/27 04:32:44;;;;;;;122.65;75.35;;;33.70;94.90;;;;;;5074899;28;20073;-67
2023/09/27 04:35:12;;;;;;;126.10;74.55;;;33.70;95.20;;;;;;5074322;28;20033;-68
2023/09/27 04:37:40;;;;;;;131.10;77.22;;;33.80;95.30;;;;;;5074451;28;20024;-68
2023/09/27 04:40:11;;;;;;;136.00;81.15;;;33.80;95.00;;;;;;5074713;28;20025;-68
2023/09/27 04:42:38;;;;;;;139.93;84.75;;;33.80;95.10;;;;;;5074269;28;20028;-69
2023/09/27 04:45:06;;;;;;;120.05;75.75;;;33.90;94.40;;;;;;5074442;28;20044;-68
2023/09/27 04:47:33;;;;;;;118.55;74.13;;;33.90;94.30;;;;;;5073914;28;20028;-67
2023/09/27 04:49:59;;;;;;;106.78;65.57;;;33.90;94.20;;;;;;5065073;28;20029;-67
2023/09/27 04:52:26;;;;;;;101.72;65.70;;;33.80;94.40;;;;;;5073198;28;20040;-66
2023/09/27 04:54:56;;;;;;;118.30;72.95;;;33.90;93.80;;;;;;5074557;28;20048;-67
2023/09/27 04:57:23;;;;;;;112.95;77.93;;;33.90;93.30;;;;;;5065849;28;20025;-66
2023/09/27 04:59:52;;;;;;;119.22;78.68;;;34.00;93.00;;;;;;5053947;28;20017;-66
2023/09/27 05:02:20;;;;;;;121.18;79.43;;;34.20;92.60;;;;;;5053939;28;20025;-66
2023/09/27 05:04:49;;;;;;;121.13;75.95;;;34.20;92.90;;;;;;5053675;28;20029;-64
2023/09/27 05:07:19;;;;;;;103.25;65.15;;;34.20;92.30;;;;;;5060550;28;20031;-63
2023/09/27 05:09:46;;;;;;;91.88;63.30;;;34.20;92.10;;;;;;5062134;28;20029;-63
2023/09/27 05:12:13;;;;;;;105.85;75.70;;;34.30;91.80;;;;;;5053814;28;20036;-64
2023/09/27 05:14:41;;;;;;;118.78;77.53;;;34.40;91.80;;;;;;5061798;28;20024;-63
2023/09/27 05:17:08;;;;;;;98.63;67.30;;;34.40;91.40;;;;;;5065393;28;20029;-63
2023/09/27 05:19:35;;;;;;;97.70;63.67;;;34.50;91.60;;;;;;5064448;28;20027;-64
2023/09/27 05:22:01;;;;;;;91.03;59.63;;;34.60;91.70;;;;;;5063101;28;20021;-64
2023/09/27 05:24:28;;;;;;;95.50;59.85;;;34.60;91.40;;;;;;5062378;28;20143;-64
2023/09/27 05:26:59;;;;;;;98.65;66.43;;;34.60;91.20;;;;;;5064350;28;20017;-64
2023/09/27 05:29:25;;;;;;;112.25;78.28;;;34.70;90.90;;;;;;5064249;28;20393;-66
2023/09/27 05:31:52;;;;;;;101.10;73.93;;;34.80;90.90;;;;;;5072989;28;20052;-65
2023/09/27 05:34:18;;;;;;;97.65;70.10;;;34.80;90.40;;;;;;5074040;28;20393;-64
2023/09/27 05:36:46;;;;;;;98.78;67.75;;;34.80;90.50;;;;;;5072398;28;20036;-65
2023/09/27 05:39:12;;;;;;;83.03;54.65;;;34.80;91.00;;;;;;5072378;28;20043;-63
2023/09/27 05:41:39;;;;;;;95.60;66.35;;;34.80;90.50;;;;;;5073746;28;20024;-65
2023/09/27 05:44:06;;;;;;;117.15;83.68;;;34.70;88.30;;;;;;5065841;28;20053;-65
2023/09/27 05:46:33;;;;;;;125.38;88.70;;;34.70;89.00;;;;;;5053941;28;20036;-66
2023/09/27 05:49:02;;;;;;;119.70;86.25;;;34.70;88.80;;;;;;5053653;28;20029;-66
2023/09/27 05:51:30;;;;;;;103.55;71.68;;;34.80;87.80;;;;;;5053529;28;20028;-66
2023/09/27 05:53:58;;;;;;;89.05;63.80;;;34.80;86.90;;;;;;5054124;28;20057;-68
2023/09/27 05:56:25;;;;;;;66.97;45.35;;;35.00;85.50;;;;;;5054044;28;20059;-70
2023/09/27 05:58:51;;;;;;;76.35;51.85;;;35.00;84.10;;;;;;5053971;28;20021;-69
2023/09/27 06:01:19;;;;;;;76.10;52.20;;;35.10;84.30;;;;;;5053884;28;20024;-66
2023/09/27 06:03:46;;;;;;;84.80;61.92;;;35.10;84.70;;;;;;5053559;28;20029;-64
2023/09/27 06:06:14;;;;;;;87.57;59.40;;;35.10;83.80;;;;;;5053597;28;20025;-64
2023/09/27 06:08:41;;;;;;;99.82;64.63;;;35.20;82.80;;;;;;5052205;28;20500;-63
2023/09/27 06:11:09;;;;;;;131.27;89.07;;;35.10;83.50;;;;;;5066881;28;20405;-64
2023/09/27 06:13:37;;;;;;;137.18;93.03;;;35.10;80.40;;;;;;5073555;28;20027;-68
2023/09/27 06:16:11;;;;;;;150.90;102.72;;;35.10;80.80;;;;;;5073378;28;20031;-64
2023/09/27 06:18:38;;;;;;;145.10;100.32;;;35.10;78.50;;;;;;5073248;28;20094;-64
2023/09/27 06:21:04;;;;;;;146.45;98.15;;;35.20;78.40;;;;;;5072919;28;20025;-67
2023/09/27 06:23:31;;;;;;;143.93;102.15;;;35.20;79.10;;;;;;5072573;28;20025;-64
2023/09/27 06:25:57;;;;;;;177.02;120.60;;;35.20;80.20;;;;;;5072890;28;20025;-67
2023/09/27 06:28:24;;;;;;;185.48;123.70;;;35.30;80.20;;;;;;5072751;28;20071;-63
2023/09/27 06:30:51;;;;;;;179.85;120.15;;;35.30;79.20;;;;;;5072492;28;20036;-65
2023/09/27 06:33:17;;;;;;;175.52;120.25;;;35.30;79.10;;;;;;5072943;28;20028;-65
2023/09/27 06:35:44;;;;;;;165.35;109.03;;;35.30;78.20;;;;;;5072911;28;20024;-65
2023/09/27 06:38:10;;;;;;;119.30;82.82;;;35.20;78.50;;;;;;5072883;28;20489;-64
2023/09/27 06:40:37;;;;;;;123.25;81.72;;;35.20;76.40;;;;;;5072710;28;20033;-67
2023/09/27 06:43:05;;;;;;;141.75;97.90;;;35.20;76.10;;;;;;5075304;28;20157;-65
2023/09/27 06:45:32;;;;;;;143.70;98.57;;;35.30;77.10;;;;;;5076271;28;20456;-64
2023/09/27 06:47:58;;;;;;;132.95;93.28;;;35.40;78.40;;;;;;5076770;28;20497;-66
2023/09/27 06:50:25;;;;;;;122.85;88.35;;;35.40;77.50;;;;;;5075096;28;20032;-65
2023/09/27 06:52:51;;;;;;;145.82;99.88;;;35.40;77.10;;;;;;5071076;28;20040;-65
2023/09/27 06:55:19;;;;;;;167.20;111.38;;;35.40;75.40;;;;;;5075974;28;20474;-65
2023/09/27 06:57:49;;;;;;;166.18;113.43;;;35.50;74.00;;;;;;5075434;28;20029;-65
2023/09/27 07:00:18;;;;;;;147.82;99.68;;;35.40;74.10;;;;;;5076100;28;20073;-65
2023/09/27 07:02:47;;;;;;;152.32;101.57;;;35.40;74.30;;;;;;5076036;28;20028;-65
2023/09/27 07:05:15;;;;;;;154.85;105.82;;;35.30;74.60;;;;;;5076076;28;20103;-65
2023/09/27 07:07:42;;;;;;;152.65;110.82;;;35.30;75.10;;;;;;5075293;28;20473;-65
2023/09/27 07:10:09;;;;;;;167.75;115.82;;;35.30;75.50;;;;;;5076112;28;20036;-66
2023/09/27 07:12:36;;;;;;;179.20;124.20;;;35.40;75.00;;;;;;5076031;28;20036;-64
2023/09/27 07:15:10;;;;;;;166.85;113.10;;;35.40;74.30;;;;;;5075774;28;20024;-65
2023/09/27 07:17:38;;;;;;;154.10;110.70;;;35.40;73.10;;;;;;5075962;28;20477;-65
2023/09/27 07:20:13;;;;;;;142.45;101.93;;;35.40;74.40;;;;;;5076154;28;20032;-65
2023/09/27 07:22:40;;;;;;;141.38;102.22;;;35.30;73.90;;;;;;5076046;28;20024;-65
2023/09/27 07:25:12;;;;;;;165.13;112.05;;;35.40;73.40;;;;;;5075852;28;20024;-65
2023/09/27 07:27:43;;;;;;;185.00;127.65;;;35.40;72.50;;;;;;5075611;28;20111;-64
2023/09/27 07:30:11;;;;;;;192.45;133.18;;;35.30;73.30;;;;;;5070754;28;20020;-65
2023/09/27 07:32:41;;;;;;;200.73;134.82;;;35.20;73.30;;;;;;5070890;28;20550;-65
2023/09/27 07:35:10;;;;;;;191.77;133.10;;;35.20;73.00;;;;;;5074697;28;20149;-65
2023/09/27 07:37:38;;;;;;;199.43;133.77;;;35.20;75.80;;;;;;5075530;28;20024;-65
2023/09/27 07:40:09;;;;;;;217.63;144.80;;;35.20;77.50;;;;;;5074314;28;20099;-63
2023/09/27 07:42:37;;;;;;;219.83;147.20;;;35.20;79.00;;;;;;5070884;28;20522;-66
2023/09/27 07:45:05;;;;;;;217.13;138.93;;;35.10;79.90;;;;;;5064835;28;20040;-64
2023/09/27 07:47:34;;;;;;;212.23;139.05;;;35.10;80.10;;;;;;5066291;28;20036;-65
2023/09/27 07:50:00;;;;;;;210.60;141.40;;;35.00;81.40;;;;;;5066036;28;20041;-64
2023/09/27 07:52:27;;;;;;;252.98;167.68;;;35.00;81.00;;;;;;5068378;28;20079;-63
2023/09/27 07:54:54;;;;;;;261.63;170.40;;;35.00;80.50;;;;;;5073146;28;20036;-67
2023/09/27 07:57:20;;;;;;;232.50;152.90;;;35.00;80.80;;;;;;5068126;28;20583;-64
2023/09/27 07:59:47;;;;;;;207.10;135.60;;;35.00;81.10;;;;;;5066403;28;20516;-64
2023/09/27 08:02:14;;;;;;;221.23;145.10;;;34.90;81.50;;;;;;5065635;28;20048;-65
2023/09/27 08:04:41;;;;;;;210.32;137.30;;;34.90;81.00;;;;;;5063614;28;20029;-64
2023/09/27 08:07:08;;;;;;;235.77;149.13;;;34.80;82.20;;;;;;5065020;28;20033;-65
2023/09/27 08:09:38;;;;;;;254.00;166.77;;;34.80;82.00;;;;;;5068064;28;20032;-64
2023/09/27 08:12:05;;;;;;;245.88;162.68;;;34.80;82.00;;;;;;5074762;28;20428;-65
2023/09/27 08:14:36;;;;;;;234.52;157.63;;;34.80;82.80;;;;;;5075271;28;20511;-68
2023/09/27 08:17:04;;;;;;;212.18;141.05;;;34.80;82.50;;;;;;5074479;28;20063;-69
2023/09/27 08:19:32;;;;;;;240.25;160.88;;;34.80;81.20;;;;;;5074193;28;20553;-69
2023/09/27 08:21:58;;;;;;;242.52;160.13;;;34.80;82.90;;;;;;5074736;28;20024;-69
2023/09/27 08:24:25;;;;;;;216.55;149.82;;;34.80;82.90;;;;;;5074710;28;20024;-64
2023/09/27 08:26:51;;;;;;;202.70;137.25;;;34.80;82.00;;;;;;5074465;28;20098;-64
2023/09/27 08:29:20;;;;;;;184.68;123.30;;;34.70;82.20;;;;;;5073901;28;20024;-63
2023/09/27 08:31:47;;;;;;;174.50;120.25;;;34.70;82.70;;;;;;5067805;28;20074;-63
2023/09/27 08:34:13;;;;;;;183.43;124.20;;;34.70;83.10;;;;;;5065405;28;20059;-65
2023/09/27 08:36:40;;;;;;;188.85;124.13;;;34.70;81.90;;;;;;5073615;28;20020;-65
2023/09/27 08:39:06;;;;;;;179.70;117.82;;;34.50;82.60;;;;;;5072818;28;20069;-63
2023/09/27 08:41:33;;;;;;;176.88;113.65;;;34.50;83.80;;;;;;5074228;28;20048;-63
2023/09/27 08:44:00;;;;;;;171.25;117.85;;;34.50;84.00;;;;;;5073658;28;20099;-64
2023/09/27 08:46:31;;;;;;;195.38;130.85;;;34.50;84.10;;;;;;5074197;28;20097;-65
2023/09/27 08:48:58;;;;;;;193.98;129.40;;;34.40;83.60;;;;;;5074050;28;20035;-65
2023/09/27 08:51:27;;;;;;;200.10;126.70;;;34.40;84.20;;;;;;5072392;28;20028;-65
2023/09/27 08:53:53;;;;;;;158.55;109.30;;;34.40;85.20;;;;;;5058868;28;20043;-65
2023/09/27 08:56:20;;;;;;;169.57;107.72;;;34.40;82.60;;;;;;5073995;28;20095;-66
2023/09/27 08:58:49;;;;;;;170.73;113.80;;;34.40;82.20;;;;;;5072818;28;20092;-66
2023/09/27 09:01:18;;;;;;;188.70;127.50;;;34.40;80.70;;;;;;5066829;28;20051;-64
2023/09/27 09:03:46;;;;;;;211.60;140.55;;;34.30;78.10;;;;;;5056608;28;20262;-66
2023/09/27 09:06:14;;;;;;;211.15;137.98;;;34.20;78.50;;;;;;5054095;28;20025;-66
2023/09/27 09:08:42;;;;;;;204.57;140.13;;;34.20;79.00;;;;;;5053928;28;20025;-64
2023/09/27 09:11:11;;;;;;;210.10;143.20;;;34.20;79.10;;;;;;5054096;28;20025;-66
2023/09/27 09:13:59;;;;;;;232.27;153.23;;;34.30;79.70;;;;;;5053883;28;20477;-66
2023/09/27 09:16:26;;;;;;;210.48;138.63;;;34.30;78.20;;;;;;5053944;28;20036;-66
2023/09/27 09:18:54;;;;;;;246.55;158.35;;;34.20;79.00;;;;;;5053973;28;20071;-66
2023/09/27 09:21:21;;;;;;;253.68;160.75;;;34.20;81.70;;;;;;5061884;28;20523;-66
2023/09/27 09:23:49;;;;;;;250.27;159.57;;;34.20;83.30;;;;;;5073860;28;20049;-67
2023/09/27 09:26:29;;;;;;;286.48;184.98;;;34.20;84.40;;;;;;5074010;28;20032;-66
2023/09/27 09:29:00;;;;;;;295.60;190.80;;;34.20;84.10;;;;;;5074690;28;20171;-66
2023/09/27 09:31:30;;;;;;;309.30;198.63;;;34.20;84.60;;;;;;5066224;28;20050;-66
2023/09/27 09:34:14;;;;;;;339.38;215.82;;;34.20;84.20;;;;;;5060129;28;20021;-65
2023/09/27 09:36:40;;;;;;;367.38;232.40;;;34.10;82.70;;;;;;5059047;28;20037;-66
2023/09/27 09:39:14;;;;;;;363.83;227.48;;;34.00;83.40;;;;;;5071964;28;20016;-66
2023/09/27 09:41:48;;;;;;;326.98;199.27;;;33.90;82.30;;;;;;5066580;28;20075;-65
2023/09/27 09:44:23;;;;;;;320.60;194.73;;;33.70;83.10;;;;;;5061556;28;20025;-64
2023/09/27 09:46:53;;;;;;;269.98;158.00;;;33.70;84.60;;;;;;5059670;28;20035;-70
2023/09/27 09:49:21;;;;;;;228.65;142.60;;;33.60;84.00;;;;;;5065002;28;20465;-67
2023/09/27 09:51:50;;;;;;;220.35;141.00;;;33.60;84.40;;;;;;5062355;28;20112;-63
2023/09/27 09:54:41;;;;;;;209.63;130.18;;;33.50;86.10;;;;;;5068128;28;20397;-69
2023/09/27 09:57:10;;;;;;;197.93;124.30;;;33.50;86.60;;;;;;5068560;28;20485;-64
2023/09/27 09:59:45;;;;;;;201.80;123.85;;;33.50;87.20;;;;;;5062740;28;20025;-64
2023/09/27 10:02:22;;;;;;;189.80;116.30;;;33.50;87.50;;;;;;5061951;28;20477;-64
2023/09/27 10:04:55;;;;;;;199.88;119.68;;;33.40;86.00;;;;;;5062254;28;20025;-64
2023/09/27 10:07:23;;;;;;;201.43;121.13;;;33.40;87.10;;;;;;5062561;28;20084;-65
2023/09/27 10:09:52;;;;;;;207.57;128.10;;;33.40;87.40;;;;;;5061572;28;20024;-64
2023/09/27 10:12:21;;;;;;;224.88;135.32;;;33.40;86.00;;;;;;5063351;28;20021;-63
2023/09/27 10:14:49;;;;;;;237.00;138.18;;;33.30;87.70;;;;;;5063634;28;20021;-64
2023/09/27 10:17:26;;;;;;;235.68;135.90;;;33.30;87.30;;;;;;5065788;28;20066;-66
2023/09/27 10:20:31;;;;;;;225.52;133.75;;;33.20;86.50;;;;;;5070322;28;20048;-67
2023/09/27 10:22:53;;;;;;;213.35;127.43;;;33.10;88.70;;;;;;5063226;28;20025;-66
2023/09/27 10:25:34;;;;;;;209.32;124.97;;;33.10;87.30;;;;;;5071325;28;20028;-67
2023/09/27 10:28:01;;;;;;;215.65;129.52;;;33.10;88.50;;;;;;5067267;28;20025;-67
2023/09/27 10:30:40;;;;;;;220.27;129.82;;;33.10;88.80;;;;;;5065872;28;20021;-73
2023/09/27 10:33:17;;;;;;;183.65;110.30;;;33.10;89.70;;;;;;5069704;28;20029;-66
2023/09/27 10:35:45;;;;;;;189.35;115.22;;;33.00;88.70;;;;;;5059982;28;20518;-63
2023/09/27 10:38:12;;;;;;;193.65;115.50;;;33.00;89.40;;;;;;5062637;28;20504;-64
2023/09/27 10:40:42;;;;;;;217.73;130.88;;;33.00;95.00;;;;;;5040318;28;20408;-65
2023/09/27 10:43:10;;;;;;;240.02;148.15;;;32.90;93.10;;;;;;5067979;28;20029;-64
2023/09/27 10:45:36;;;;;;;273.58;175.25;;;32.90;92.90;;;;;;5072838;28;20428;-64
2023/09/27 10:48:15;;;;;;;264.23;171.32;;;32.70;92.50;;;;;;5077164;28;20025;-64
2023/09/27 10:50:53;;;;;;;267.65;170.48;;;32.70;92.90;;;;;;5072690;28;20461;-69
2023/09/27 10:53:19;;;;;;;279.23;174.45;;;32.80;92.80;;;;;;5064419;28;20045;-67
2023/09/27 10:55:46;;;;;;;282.52;186.77;;;32.70;93.20;;;;;;5064393;28;20094;-65
2023/09/27 10:58:15;;;;;;;279.77;180.60;;;32.70;92.90;;;;;;5068636;28;20021;-64
2023/09/27 11:01:03;;;;;;;252.88;161.90;;;32.70;94.90;;;;;;5067119;28;20542;-64
2023/09/27 11:03:30;;;;;;;251.40;162.50;;;32.60;93.90;;;;;;5066937;28;20025;-63
2023/09/27 11:06:15;;;;;;;252.18;157.60;;;32.60;94.10;;;;;;5066188;28;20033;-64
2023/09/27 11:08:43;;;;;;;253.18;165.30;;;32.40;94.60;;;;;;5067118;28;20025;-64
2023/09/27 11:11:13;;;;;;;282.08;185.23;;;32.40;94.30;;;;;;5071921;28;20496;-62
2023/09/27 11:13:47;;;;;;;309.52;206.75;;;32.40;93.60;;;;;;5068708;28;20036;-63
2023/09/27 11:16:15;;;;;;;334.75;221.93;;;32.40;93.80;;;;;;5062766;28;20017;-64
2023/09/27 11:18:45;;;;;;;378.50;249.73;;;32.30;94.20;;;;;;5063558;28;20029;-63
2023/09/27 11:21:13;;;;;;;407.95;273.10;;;32.30;94.50;;;;;;5062296;28;20033;-63
2023/09/27 11:24:01;;;;;;;436.00;286.85;;;32.20;94.50;;;;;;5056084;28;20234;-64
2023/09/27 11:26:30;;;;;;;451.92;301.17;;;32.20;94.50;;;;;;5074034;28;20043;-64
2023/09/27 11:28:57;;;;;;;451.75;295.70;;;32.10;94.50;;;;;;5074728;28;20024;-63
2023/09/27 11:31:25;;;;;;;454.48;298.27;;;32.10;94.70;;;;;;5075260;28;20016;-64
2023/09/27 11:33:52;;;;;;;455.27;294.65;;;32.10;95.30;;;;;;5073864;28;20024;-62
2023/09/27 11:36:18;;;;;;;450.85;283.65;;;32.00;95.40;;;;;;5073907;28;20043;-64
2023/09/27 11:38:54;;;;;;;434.95;268.02;;;32.00;95.70;;;;;;5071446;28;20106;-64
2023/09/27 11:41:20;;;;;;;413.98;249.68;;;31.90;96.00;;;;;;5064293;28;20442;-64
2023/09/27 11:43:47;;;;;;;392.60;236.73;;;31.90;91.90;;;;;;5068735;28;20384;-61
2023/09/27 11:46:27;;;;;;;385.60;226.52;;;31.90;91.70;;;;;;5063616;28;20108;-65
2023/09/27 11:48:54;;;;;;;372.67;222.18;;;31.80;92.10;;;;;;5065069;28;20482;-64
2023/09/27 11:51:22;;;;;;;356.77;213.02;;;31.70;92.40;;;;;;5053754;28;20098;-64
2023/09/27 11:53:49;;;;;;;337.52;201.35;;;31.70;92.40;;;;;;5055067;28;20055;-65
2023/09/27 11:56:15;;;;;;;339.63;201.30;;;31.70;92.60;;;;;;5055920;28;20100;-64
2023/09/27 11:58:42;;;;;;;324.27;193.00;;;31.70;93.00;;;;;;5055400;28;20055;-65
2023/09/27 12:01:08;;;;;;;317.38;187.68;;;31.70;92.90;;;;;;5055167;28;20087;-64
2023/09/27 12:03:35;;;;;;;314.52;186.00;;;31.60;93.00;;;;;;5054752;28;20021;-65
2023/09/27 12:06:02;;;;;;;304.02;182.07;;;31.60;93.50;;;;;;5063029;28;20031;-66
2023/09/27 12:08:29;;;;;;;312.33;182.38;;;31.60;93.40;;;;;;5058062;28;20041;-65
2023/09/27 12:10:55;;;;;;;326.98;196.05;;;31.50;93.60;;;;;;5057461;28;20025;-66
2023/09/27 12:13:22;;;;;;;342.88;198.40;;;31.50;93.90;;;;;;5075033;28;20039;-66
2023/09/27 12:15:48;;;;;;;305.73;189.05;;;31.50;93.90;;;;;;5075040;28;20024;-66
2023/09/27 12:18:15;;;;;;;325.08;192.23;;;31.40;94.20;;;;;;5074703;28;20473;-66
2023/09/27 12:20:41;;;;;;;322.60;195.85;;;31.30;94.30;;;;;;5074991;28;20025;-66